YMBT weather

Mount Beauty Airport
Mount Beauty, Victoria, Australia

Public forecast

Using degrees Celsius for public forecast. Weather courtesy of forecast.io.

Closest aviation weather report (METAR) to Mount Beauty Airport

Closest report is Albury Airport, 41.1 nm (76.2 km) NNW. Retrieved 2020/02/28 21:00 UTC (50 minutes ago):

YMAY 282100Z AUTO 11003KT 9999 // NCD 15/11 Q1016

Closest aviation forecast (TAF) to Mount Beauty Airport

Closest forecast is Wangaratta Airport, 45.7 nm (84.6 km) WNW. Retrieved 2020/02/28 19:03 UTC (3 hours ago):

TAF YWGT 281708Z 2819/2908 VRB03KT CAVOK FM290000 35008KT CAVOK FM290400 28008KT CAVOK